Ely, NV

02:39 PDT le 31 Mars 2015 (GMT -0700)
Ely | | Change Station
CLOSE
Current Station
Aéroport
Location: Ely,
Altitude: 6260 ft
Stations météo à proximité

Alt. 6260 ft 39.30 °N, 114.85 °W | Updated 46 minutes ago

Ciel dégagé
Ciel dégagé
46 ° F
Paraît 40 ° F
N
14
Vent Variable Vent de Sud

Aujourd'hui
Haut(e) -- | Bas -- ° F
--% Risque de précip.
Hier
Haut(e) -- | Bas -- ° F
Precip. -- pouce
6:25 AM 7:02 PM
Lune gibbeuse croissante, 85% visible
Pression 29.88 pouce
Visibilité 10.0 Miles terrestres
Nuages Ciel dégagé
Refroidissement éolien 40 ° F
Point de rosée 11 ° F
Humidité 24%
Précipitations 0.00 pouce
Profondeur de la couche neigeuse Non disponible.
UV 0 sur 12
Pollen 11.10 sur 12
Qualité de l'air Non disponible.
Flu Activity Non disponible.
METAR KELY 310853Z AUTO 19012KT 10SM CLR 08/M12 A3012 RMK AO2 SLP118 T00781117 58006

More Conditions Fewer Conditions

Pression 29.88 pouce
Visibilité 10.0 Miles terrestres
Nuages Ciel dégagé
Refroidissement éolien 40 ° F
Point de rosée 11 ° F
Humidité 24%
Précipitations 0.00 pouce
Profondeur de la couche neigeuse Non disponible.
UV 0 sur 12
Pollen 11.10 sur 12
Qualité de l'air Non disponible.
Flu Activity Non disponible.
METAR KELY 310853Z AUTO 19012KT 10SM CLR 08/M12 A3012 RMK AO2 SLP118 T00781117 58006

More Conditions Fewer Conditions

10-Day Weather Forecast

Almanac

Astronomie

Mar. 31, 2015 Lever Coucher
Temps réel
Crépuscule civil
Crépuscule nautique
Crépuscule astronomique
Lune
Durée de lumière visible
Longueur du jour
Tomorrow will be .
, % of the Moon is Illuminated

Extrêmes aujourd'hui

State Highs State Lows

Community

WunderPhotos

Upload Photos

1,809,733 Photos téléchargées !

WunderBlogs® & News

Nearby

Qualité de l'air

  Qualité de l'air Indice de la qualité de l'air Polluant
Not available.

Épaisseur de neige

Station Depth Altitude

Activité sismique

Ville Distance Mag. Time & Date
Minimum magnitude displayed is 2.5.

Températures des eaux côtières

Lieu Température

Stations

Stations météo à proximité

Emplacement de la station Température Refroidissement éolien Point de rosée Humidité Vent Precip. Alt. Mise à jour Type